Time;durP1;ratioP1;P1;durP2;ratioP2;P2;SDS_P1;SDS_P2;PMS_P1;PMS_P2;Temp;Humidity;BMP_temperature;BMP_pressure;BME280_temperature;BME280_humidity;BME280_pressure;Samples;Min_cycle;Max_cycle;Signal;HPM_P1;HPM_P2
2022/08/11 00:00:19;;;;;;;;;;;24.70;38.70;;;;;;5084573;28;19935;-68
2022/08/11 00:02:48;;;;;;;;;;;24.70;38.80;;;;;;5081478;28;20308;-68
2022/08/11 00:05:16;;;;;;;;;;;24.60;38.80;;;;;;5086191;28;19963;-68
2022/08/11 00:07:44;;;;;;;;;;;24.60;39.00;;;;;;5090667;28;19927;-69
2022/08/11 00:10:12;;;;;;;;;;;24.60;39.10;;;;;;5088388;28;19977;-69
2022/08/11 00:12:41;;;;;;;;;;;24.50;39.20;;;;;;5085672;28;19947;-69
2022/08/11 00:15:08;;;;;;;;;;;24.50;39.30;;;;;;5089256;28;19931;-69
2022/08/11 00:17:36;;;;;;;;;;;24.40;39.40;;;;;;5090043;28;19928;-70
2022/08/11 00:20:04;;;;;;;;;;;24.40;39.50;;;;;;5084908;28;19932;-72
2022/08/11 00:22:32;;;;;;;;;;;24.40;39.70;;;;;;5088216;28;19924;-69
2022/08/11 00:25:00;;;;;;;;;;;24.30;39.80;;;;;;5081961;28;19947;-70
2022/08/11 00:27:33;;;;;;;;;;;24.20;40.00;;;;;;5090063;28;19924;-68
2022/08/11 00:30:01;;;;;;;;;;;24.20;40.30;;;;;;5088800;28;19924;-70
2022/08/11 00:32:28;;;;;;;;;;;24.20;40.20;;;;;;5080761;28;19947;-72
2022/08/11 00:34:55;;;;;;;;;;;24.20;40.30;;;;;;5089112;28;19924;-68
2022/08/11 00:37:23;;;;;;;;;;;24.10;40.30;;;;;;5089231;28;19924;-67
2022/08/11 00:39:51;;;;;;;;;;;24.10;40.60;;;;;;5082141;28;19928;-70
2022/08/11 00:42:24;;;;;;;;;;;24.00;40.80;;;;;;5089304;28;19924;-68
2022/08/11 00:45:01;;;;;;;;;;;24.00;41.00;;;;;;5087643;28;20388;-68
2022/08/11 00:47:44;;;;;;;;;;;23.90;40.80;;;;;;5087949;28;19924;-68
2022/08/11 00:50:17;;;;;;;;;;;23.80;41.10;;;;;;5088136;28;19928;-69
2022/08/11 00:52:54;;;;;;;;;;;23.80;41.20;;;;;;5088838;28;19928;-71
2022/08/11 00:55:38;;;;;;;;;;;23.80;41.50;;;;;;5082308;28;20281;-70
2022/08/11 00:58:20;;;;;;;;;;;23.70;41.60;;;;;;5082162;28;20388;-69
2022/08/11 01:00:58;;;;;;;;;;;23.70;42.00;;;;;;5080087;28;20604;-69
2022/08/11 01:03:32;;;;;;;;;;;23.70;42.00;;;;;;5081218;28;20260;-69
2022/08/11 01:06:17;;;;;;;;;;;23.60;42.00;;;;;;5081726;28;20407;-69
2022/08/11 01:09:06;;;;;;;;;;;23.60;42.00;;;;;;5084908;28;19932;-70
2022/08/11 01:11:49;;;;;;;;;;;23.50;42.00;;;;;;5081852;28;19933;-69
2022/08/11 01:14:31;;;;;;;;;;;23.50;42.20;;;;;;5079704;28;19971;-71
2022/08/11 01:17:04;;;;;;;;;;;23.40;42.40;;;;;;5081359;28;19924;-69
2022/08/11 01:19:50;;;;;;;;;;;23.40;43.00;;;;;;5084234;28;19924;-69
2022/08/11 01:22:28;;;;;;;;;;;23.40;42.50;;;;;;5081101;28;19963;-71
2022/08/11 01:25:12;;;;;;;;;;;23.30;42.50;;;;;;5075098;28;19935;-71
2022/08/11 01:28:01;;;;;;;;;;;23.30;42.60;;;;;;5081374;28;19924;-70
2022/08/11 01:30:46;;;;;;;;;;;23.20;42.60;;;;;;5081186;28;20287;-69
2022/08/11 01:33:27;;;;;;;;;;;23.20;42.70;;;;;;5082997;28;19924;-72
2022/08/11 01:36:19;;;;;;;;;;;23.20;43.00;;;;;;5043940;28;19928;-69
2022/08/11 01:39:16;;;;;;;;;;;23.10;43.00;;;;;;5078296;28;20305;-69
2022/08/11 01:44:51;;;;;;;;;;;23.00;42.90;;;;;;5081144;28;20061;-69
2022/08/11 01:50:15;;;;;;;;;;;22.90;43.20;;;;;;5079266;28;19928;-69
2022/08/11 01:52:48;;;;;;;;;;;22.90;43.50;;;;;;5081673;28;19931;-69
2022/08/11 01:55:20;;;;;;;;;;;22.90;43.60;;;;;;5081995;28;19967;-68
2022/08/11 01:57:50;;;;;;;;;;;22.90;43.60;;;;;;5080776;28;20384;-69
2022/08/11 02:00:19;;;;;;;;;;;22.80;43.50;;;;;;5081839;28;19932;-69
2022/08/11 02:02:52;;;;;;;;;;;22.80;43.50;;;;;;5076722;28;19931;-70
2022/08/11 02:05:28;;;;;;;;;;;22.70;43.80;;;;;;5081095;28;20018;-68
2022/08/11 02:08:00;;;;;;;;;;;22.70;43.70;;;;;;5080494;28;19924;-69
2022/08/11 02:13:19;;;;;;;;;;;22.60;43.80;;;;;;5081172;28;20024;-70
2022/08/11 02:15:48;;;;;;;;;;;22.60;44.00;;;;;;5086748;28;20291;-69
2022/08/11 02:18:20;;;;;;;;;;;22.50;43.80;;;;;;5087638;28;19935;-69
2022/08/11 02:23:40;;;;;;;;;;;22.50;44.10;;;;;;5085491;28;20017;-69
2022/08/11 02:26:14;;;;;;;;;;;22.50;44.20;;;;;;5082186;28;19955;-69
2022/08/11 02:28:49;;;;;;;;;;;22.40;44.00;;;;;;5087188;28;20011;-68
2022/08/11 02:34:11;;;;;;;;;;;22.30;44.20;;;;;;5082346;28;20732;-68
2022/08/11 02:36:40;;;;;;;;;;;22.30;44.00;;;;;;5086320;28;19978;-69
2022/08/11 02:39:09;;;;;;;;;;;22.30;44.10;;;;;;5081804;28;20377;-69
2022/08/11 02:44:32;;;;;;;;;;;22.20;44.30;;;;;;5081475;28;19959;-71
2022/08/11 02:47:08;;;;;;;;;;;22.20;44.50;;;;;;5085662;28;19927;-69
2022/08/11 02:49:54;;;;;;;;;;;22.20;44.60;;;;;;5085509;28;19931;-69
2022/08/11 02:52:29;;;;;;;;;;;22.20;44.60;;;;;;5087256;28;19920;-69
2022/08/11 02:55:02;;;;;;;;;;;22.10;44.60;;;;;;5076365;28;19924;-68
2022/08/11 02:57:33;;;;;;;;;;;22.10;44.70;;;;;;5082659;28;19925;-69
2022/08/11 03:00:06;;;;;;;;;;;22.10;44.80;;;;;;5085399;28;19924;-70
2022/08/11 03:02:39;;;;;;;;;;;22.00;44.80;;;;;;5080632;28;19931;-69
2022/08/11 03:05:12;;;;;;;;;;;22.00;44.80;;;;;;5082205;28;19932;-68
2022/08/11 03:07:44;;;;;;;;;;;21.90;44.80;;;;;;5077972;28;21057;-69
2022/08/11 03:10:21;;;;;;;;;;;21.90;44.70;;;;;;5080959;28;19931;-68
2022/08/11 03:18:30;;;;;;;;;;;21.80;45.20;;;;;;5090458;28;20024;-70
2022/08/11 03:21:01;;;;;;;;;;;21.80;45.00;;;;;;5087418;28;19928;-69
2022/08/11 03:23:30;;;;;;;;;;;21.80;45.20;;;;;;5088517;28;19931;-71
2022/08/11 03:26:01;;;;;;;;;;;21.70;45.10;;;;;;5084883;28;20384;-68
2022/08/11 03:28:32;;;;;;;;;;;21.70;45.20;;;;;;5091393;28;19982;-70
2022/08/11 03:31:06;;;;;;;;;;;21.70;45.40;;;;;;5090066;28;19920;-69
2022/08/11 03:36:24;;;;;;;;;;;21.60;45.30;;;;;;5084765;28;20794;-68
2022/08/11 03:38:59;;;;;;;;;;;21.60;45.50;;;;;;5080607;28;20529;-69
2022/08/11 03:41:43;;;;;;;;;;;21.60;45.50;;;;;;5087267;28;20315;-68
2022/08/11 03:44:34;;;;;;;;;;;21.50;45.50;;;;;;5089938;28;19921;-68
2022/08/11 03:47:10;;;;;;;;;;;21.60;45.80;;;;;;5082798;28;20460;-68
2022/08/11 03:49:44;;;;;;;;;;;21.50;45.90;;;;;;5087461;28;19935;-69
2022/08/11 03:52:16;;;;;;;;;;;21.50;45.70;;;;;;5091064;28;19928;-69
2022/08/11 03:54:48;;;;;;;;;;;21.40;45.90;;;;;;5078313;28;20330;-68
2022/08/11 03:57:39;;;;;;;;;;;21.40;46.00;;;;;;5085662;28;19932;-69
2022/08/11 04:00:37;;;;;;;;;;;21.40;46.00;;;;;;5082799;28;19924;-67
2022/08/11 04:03:27;;;;;;;;;;;21.40;45.90;;;;;;5081243;28;19932;-68
2022/08/11 04:06:13;;;;;;;;;;;21.30;45.90;;;;;;5078857;28;19935;-68
2022/08/11 04:08:57;;;;;;;;;;;21.30;46.20;;;;;;5086517;28;20404;-68
2022/08/11 04:11:48;;;;;;;;;;;21.30;46.30;;;;;;5079709;28;20261;-67
2022/08/11 04:17:49;;;;;;;;;;;21.20;46.20;;;;;;5082077;28;19981;-70
2022/08/11 04:20:35;;;;;;;;;;;21.20;46.30;;;;;;5021619;28;19965;-71
2022/08/11 04:23:14;;;;;;;;;;;21.10;46.30;;;;;;5015216;28;19957;-69
2022/08/11 04:25:49;;;;;;;;;;;21.10;46.30;;;;;;5056561;28;20285;-69
2022/08/11 04:28:29;;;;;;;;;;;21.10;46.40;;;;;;5080490;28;20362;-70
2022/08/11 04:31:05;;;;;;;;;;;21.00;46.50;;;;;;5076972;28;19931;-68
2022/08/11 04:33:48;;;;;;;;;;;21.00;46.60;;;;;;5085948;28;19928;-70
2022/08/11 04:37:31;;;;;;;;;;;21.00;46.40;;;;;;5082187;28;19939;-69
2022/08/11 04:39:27;;;;;;;;;;;21.00;46.60;;;;;;5074711;28;19932;-71
2022/08/11 04:45:20;;;;;;;;;;;21.00;46.80;;;;;;5080614;28;19977;-70
2022/08/11 05:02:49;;;;;;;;;;;20.80;47.10;;;;;;5088387;28;19935;-70
2022/08/11 05:05:33;;;;;;;;;;;20.80;47.20;;;;;;5083031;28;19928;-70
2022/08/11 05:08:14;;;;;;;;;;;20.70;47.20;;;;;;5083370;28;19931;-70
2022/08/11 05:10:53;;;;;;;;;;;20.70;47.30;;;;;;5085778;28;19924;-68
2022/08/11 05:35:41;;;;;;;;;;;20.50;47.80;;;;;;5081285;28;19927;-69
2022/08/11 05:57:27;;;;;;;;;;;20.40;48.30;;;;;;5080738;28;19983;-69
2022/08/11 05:59:59;;;;;;;;;;;20.40;48.30;;;;;;5078976;28;19935;-69
2022/08/11 06:02:27;;;;;;;;;;;20.40;48.30;;;;;;5081436;28;19927;-69
2022/08/11 06:04:55;;;;;;;;;;;20.30;48.40;;;;;;5085044;28;19928;-70
2022/08/11 06:07:26;;;;;;;;;;;20.30;48.50;;;;;;5079099;28;19927;-69
2022/08/11 06:09:54;;;;;;;;;;;20.30;48.40;;;;;;5086314;28;19931;-68
2022/08/11 06:12:22;;;;;;;;;;;20.30;48.50;;;;;;5079175;28;19935;-68
2022/08/11 06:14:50;;;;;;;;;;;20.30;48.50;;;;;;5082153;28;19951;-66
2022/08/11 06:17:22;;;;;;;;;;;20.30;48.40;;;;;;5082612;28;19936;-71
2022/08/11 06:19:51;;;;;;;;;;;20.30;48.60;;;;;;5074562;28;20405;-69
2022/08/11 06:22:20;;;;;;;;;;;20.30;48.50;;;;;;5081224;28;19929;-68
2022/08/11 06:24:51;;;;;;;;;;;20.30;48.40;;;;;;5072390;28;19924;-70
2022/08/11 06:27:19;;;;;;;;;;;20.30;48.30;;;;;;5077542;28;20690;-69
2022/08/11 06:29:47;;;;;;;;;;;20.30;48.40;;;;;;5079888;28;19928;-68
2022/08/11 06:32:15;;;;;;;;;;;20.20;48.30;;;;;;5079388;28;19947;-71
2022/08/11 06:34:59;;;;;;;;;;;20.30;48.60;;;;;;5082821;28;19927;-70
2022/08/11 06:37:33;;;;;;;;;;;20.30;48.30;;;;;;5085318;28;20015;-69
2022/08/11 06:40:04;;;;;;;;;;;20.30;48.30;;;;;;5071191;28;19925;-70
2022/08/11 06:42:35;;;;;;;;;;;20.30;48.10;;;;;;5084770;28;20299;-67
2022/08/11 06:45:07;;;;;;;;;;;20.40;48.10;;;;;;5080498;28;19931;-69
2022/08/11 06:47:34;;;;;;;;;;;20.30;48.10;;;;;;5084272;28;20039;-68
2022/08/11 06:53:01;;;;;;;;;;;20.40;48.10;;;;;;5010316;28;20499;-69
2022/08/11 07:00:58;;;;;;;;;;;20.40;47.80;;;;;;5079593;28;19927;-68
2022/08/11 07:03:25;;;;;;;;;;;20.40;47.50;;;;;;5080655;28;19924;-68
2022/08/11 07:05:55;;;;;;;;;;;20.40;47.50;;;;;;5079476;28;19935;-68
2022/08/11 07:17:16;;;;;;;;;;;20.50;47.50;;;;;;5081721;28;19935;-70
2022/08/11 07:30:48;;;;;;;;;;;20.70;47.40;;;;;;5080205;28;19934;-70
2022/08/11 07:33:19;;;;;;;;;;;20.70;47.30;;;;;;5082029;28;20391;-68
2022/08/11 07:35:48;;;;;;;;;;;20.70;47.30;;;;;;5071504;28;19928;-70
2022/08/11 07:38:17;;;;;;;;;;;20.80;47.20;;;;;;5078174;28;20296;-69
2022/08/11 07:40:45;;;;;;;;;;;20.80;47.10;;;;;;5068170;28;19928;-69
2022/08/11 07:43:12;;;;;;;;;;;20.80;47.20;;;;;;5075984;28;20012;-69
2022/08/11 07:53:57;;;;;;;;;;;21.00;47.10;;;;;;5068246;28;19927;-70
2022/08/11 07:56:24;;;;;;;;;;;21.00;47.10;;;;;;5083221;28;19931;-70
2022/08/11 08:18:04;;;;;;;;;;;21.30;46.90;;;;;;5081444;28;20355;-69
2022/08/11 08:20:34;;;;;;;;;;;21.40;46.80;;;;;;5075585;28;20280;-71
2022/08/11 08:23:01;;;;;;;;;;;21.40;46.70;;;;;;5075385;28;19924;-69
2022/08/11 08:25:30;;;;;;;;;;;21.40;46.70;;;;;;5077668;28;19925;-70
2022/08/11 08:27:57;;;;;;;;;;;21.50;46.60;;;;;;5075947;28;19932;-69
2022/08/11 08:33:11;;;;;;;;;;;21.60;46.70;;;;;;5079437;28;19927;-69
2022/08/11 08:35:41;;;;;;;;;;;21.60;46.80;;;;;;5082616;28;19932;-69
2022/08/11 08:38:07;;;;;;;;;;;21.70;46.60;;;;;;5083413;28;19924;-69
2022/08/11 08:40:34;;;;;;;;;;;21.70;46.60;;;;;;5076676;28;20439;-69
2022/08/11 08:43:03;;;;;;;;;;;21.80;46.50;;;;;;5081644;28;19925;-68
2022/08/11 08:45:33;;;;;;;;;;;21.80;46.50;;;;;;5087325;28;20280;-71
2022/08/11 08:48:01;;;;;;;;;;;21.90;46.50;;;;;;5083414;28;19925;-70
2022/08/11 08:53:13;;;;;;;;;;;21.90;46.40;;;;;;5076668;28;19920;-69
2022/08/11 08:55:40;;;;;;;;;;;22.00;46.40;;;;;;5080245;28;19924;-71
2022/08/11 08:58:08;;;;;;;;;;;22.00;46.40;;;;;;5083515;28;19931;-69
2022/08/11 09:00:38;;;;;;;;;;;22.10;46.40;;;;;;5082315;28;20376;-69
2022/08/11 09:03:05;;;;;;;;;;;22.20;46.30;;;;;;5075135;28;19928;-69
2022/08/11 09:05:32;;;;;;;;;;;22.20;46.30;;;;;;5082391;28;20410;-69
2022/08/11 09:07:59;;;;;;;;;;;22.30;46.50;;;;;;5082632;28;19947;-69
2022/08/11 09:10:29;;;;;;;;;;;22.30;46.50;;;;;;5081433;28;20045;-69
2022/08/11 09:12:56;;;;;;;;;;;22.40;46.00;;;;;;5075347;28;19970;-69
2022/08/11 09:15:23;;;;;;;;;;;22.40;46.10;;;;;;5070237;28;19925;-69
2022/08/11 09:17:51;;;;;;;;;;;22.50;45.70;;;;;;5078985;28;19928;-69
2022/08/11 09:20:18;;;;;;;;;;;22.60;45.50;;;;;;5077285;28;20292;-69
2022/08/11 09:28:18;;;;;;;;;;;22.80;45.90;;;;;;5072135;28;20797;-70
2022/08/11 09:30:46;;;;;;;;;;;22.80;45.40;;;;;;5076575;28;19931;-70
2022/08/11 09:33:14;;;;;;;;;;;22.90;45.80;;;;;;5072846;28;19925;-69
2022/08/11 09:35:42;;;;;;;;;;;23.00;45.60;;;;;;5075340;28;19932;-69
2022/08/11 09:40:58;;;;;;;;;;;23.20;44.80;;;;;;5074524;28;19928;-69
2022/08/11 09:46:10;;;;;;;;;;;23.20;44.80;;;;;;5072434;28;19973;-68
2022/08/11 09:48:38;;;;;;;;;;;23.30;43.90;;;;;;5074831;28;19928;-70
2022/08/11 09:51:05;;;;;;;;;;;23.40;44.30;;;;;;5078957;28;19935;-68
2022/08/11 09:53:34;;;;;;;;;;;23.50;44.10;;;;;;5076778;28;19927;-69
2022/08/11 09:58:12;;;;;;;;;;;23.60;44.50;;;;;;5073735;28;19924;-69
2022/08/11 09:58:49;;;;;;;;;;;23.70;43.50;;;;;;5080614;28;19927;-71
2022/08/11 10:01:25;;;;;;;;;;;23.70;43.30;;;;;;5076951;28;20374;-70
2022/08/11 10:03:53;;;;;;;;;;;23.80;43.00;;;;;;5075930;28;20296;-70
2022/08/11 10:09:06;;;;;;;;;;;23.90;42.90;;;;;;5079668;28;20462;-71
2022/08/11 10:11:34;;;;;;;;;;;24.00;43.10;;;;;;5080212;28;19924;-69
2022/08/11 10:16:49;;;;;;;;;;;24.20;42.10;;;;;;5058517;28;19935;-70
2022/08/11 10:19:18;;;;;;;;;;;24.20;41.80;;;;;;5083426;28;19932;-71
2022/08/11 10:26:48;;;;;;;;;;;24.30;41.60;;;;;;5079894;28;19924;-69
2022/08/11 10:27:20;;;;;;;;;;;24.50;41.40;;;;;;5074933;28;19947;-69
2022/08/11 10:35:16;;;;;;;;;;;24.70;40.00;;;;;;5077012;28;19927;-69
2022/08/11 10:37:44;;;;;;;;;;;24.70;40.20;;;;;;5085682;28;19935;-69
2022/08/11 10:40:14;;;;;;;;;;;24.90;39.70;;;;;;5076664;28;19928;-70
2022/08/11 10:48:15;;;;;;;;;;;25.10;39.50;;;;;;5073335;28;21304;-70
2022/08/11 10:58:59;;;;;;;;;;;25.40;38.30;;;;;;5072964;28;20461;-69
2022/08/11 11:01:26;;;;;;;;;;;25.50;38.10;;;;;;5079329;28;19928;-70
2022/08/11 11:03:56;;;;;;;;;;;25.60;37.80;;;;;;5086972;28;19931;-70
2022/08/11 11:06:25;;;;;;;;;;;25.60;37.80;;;;;;5085535;28;19924;-69
2022/08/11 11:08:54;;;;;;;;;;;25.70;37.50;;;;;;5084107;28;19971;-70
2022/08/11 11:11:22;;;;;;;;;;;25.80;37.30;;;;;;5079063;28;20380;-70
2022/08/11 11:19:23;;;;;;;;;;;26.00;36.80;;;;;;5080251;28;19934;-69
2022/08/11 11:21:52;;;;;;;;;;;26.10;37.20;;;;;;5082446;28;19928;-70
2022/08/11 11:24:26;;;;;;;;;;;26.20;37.30;;;;;;5076061;28;20549;-68
2022/08/11 11:26:55;;;;;;;;;;;26.20;36.70;;;;;;5075687;28;19924;-70
2022/08/11 11:29:53;;;;;;;;;;;26.30;36.70;;;;;;5081079;28;19932;-69
2022/08/11 11:32:24;;;;;;;;;;;26.30;36.30;;;;;;5081305;28;20652;-69
2022/08/11 11:35:14;;;;;;;;;;;26.40;36.00;;;;;;5080309;28;19928;-70
2022/08/11 11:37:42;;;;;;;;;;;26.50;36.20;;;;;;5086375;28;20551;-67
2022/08/11 11:40:10;;;;;;;;;;;26.50;35.90;;;;;;5072791;28;19924;-69
2022/08/11 11:42:37;;;;;;;;;;;26.60;35.70;;;;;;5084245;28;19929;-69
2022/08/11 11:45:04;;;;;;;;;;;26.60;35.40;;;;;;5084021;28;19935;-69
2022/08/11 11:47:32;;;;;;;;;;;26.70;35.10;;;;;;5084816;28;20014;-70
2022/08/11 11:49:59;;;;;;;;;;;26.80;35.20;;;;;;5080775;28;19935;-69
2022/08/11 11:52:26;;;;;;;;;;;26.80;35.00;;;;;;5084543;28;19924;-68
2022/08/11 11:54:55;;;;;;;;;;;26.90;35.00;;;;;;5085082;28;19928;-72
2022/08/11 12:02:55;;;;;;;;;;;27.10;34.50;;;;;;5047755;28;19980;-70
2022/08/11 12:05:22;;;;;;;;;;;27.10;34.30;;;;;;5082987;28;19932;-70
2022/08/11 12:10:33;;;;;;;;;;;27.30;34.50;;;;;;5081161;28;19927;-69
2022/08/11 12:15:45;;;;;;;;;;;27.40;34.00;;;;;;5082960;28;19931;-70
2022/08/11 12:18:13;;;;;;;;;;;27.40;33.90;;;;;;5090494;28;19934;-69
2022/08/11 12:20:40;;;;;;;;;;;27.50;33.50;;;;;;5082940;28;19939;-71
2022/08/11 12:28:35;;;;;;;;;;;27.70;33.00;;;;;;5085748;28;19927;-70
2022/08/11 12:31:03;;;;;;;;;;;27.80;33.00;;;;;;5081930;28;19924;-70
2022/08/11 12:33:31;;;;;;;;;;;27.90;33.20;;;;;;5089331;28;19935;-72
2022/08/11 12:35:59;;;;;;;;;;;27.90;32.90;;;;;;5087660;28;19928;-69
2022/08/11 12:38:26;;;;;;;;;;;28.00;33.40;;;;;;5089419;28;19920;-71
2022/08/11 12:46:22;;;;;;;;;;;28.10;32.90;;;;;;5087275;28;19944;-69
2022/08/11 12:51:57;;;;;;;;;;;28.20;33.10;;;;;;5088709;28;19950;-70
2022/08/11 12:54:26;;;;;;;;;;;28.30;32.60;;;;;;5086767;28;19928;-70
2022/08/11 13:05:12;;;;;;;;;;;28.60;33.40;;;;;;5085720;28;20546;-70
2022/08/11 13:07:39;;;;;;;;;;;28.60;32.10;;;;;;5081851;28;19928;-69
2022/08/11 13:10:08;;;;;;;;;;;28.70;31.40;;;;;;5086784;28;19931;-69
2022/08/11 13:12:49;;;;;;;;;;;28.70;30.80;;;;;;5082922;28;19928;-70
2022/08/11 13:15:16;;;;;;;;;;;28.80;31.90;;;;;;5088432;28;20078;-70
2022/08/11 13:17:43;;;;;;;;;;;28.80;31.80;;;;;;5081469;28;20403;-69
2022/08/11 13:20:13;;;;;;;;;;;28.90;31.20;;;;;;5083270;28;19924;-71
2022/08/11 13:22:44;;;;;;;;;;;29.00;32.10;;;;;;5088321;28;19924;-70
2022/08/11 13:25:11;;;;;;;;;;;29.00;31.10;;;;;;5081757;28;19969;-70
2022/08/11 13:27:38;;;;;;;;;;;29.10;31.80;;;;;;5085016;28;19928;-71
2022/08/11 13:32:49;;;;;;;;;;;29.20;31.10;;;;;;5080471;28;20072;-70
2022/08/11 13:35:18;;;;;;;;;;;29.20;31.10;;;;;;5086401;28;19924;-73
2022/08/11 13:37:45;;;;;;;;;;;29.30;30.80;;;;;;5080734;28;20418;-71
2022/08/11 13:40:13;;;;;;;;;;;29.30;30.70;;;;;;5078758;28;19932;-71
2022/08/11 13:42:40;;;;;;;;;;;29.40;31.00;;;;;;5087951;28;19924;-70
2022/08/11 13:45:07;;;;;;;;;;;29.40;31.80;;;;;;5076825;28;19925;-71
2022/08/11 13:47:34;;;;;;;;;;;29.50;31.20;;;;;;5084595;28;19935;-74
2022/08/11 13:50:01;;;;;;;;;;;29.50;30.70;;;;;;5083697;28;19931;-70
2022/08/11 13:52:29;;;;;;;;;;;29.60;30.80;;;;;;5087513;28;19935;-70
2022/08/11 13:54:56;;;;;;;;;;;29.70;31.20;;;;;;5077510;28;20422;-71
2022/08/11 13:57:23;;;;;;;;;;;29.70;29.90;;;;;;5086815;28;19931;-68
2022/08/11 13:59:53;;;;;;;;;;;29.80;30.20;;;;;;5085540;28;19988;-71
2022/08/11 14:02:23;;;;;;;;;;;29.80;31.10;;;;;;5079984;28;19967;-70
2022/08/11 14:04:51;;;;;;;;;;;29.90;30.30;;;;;;5076627;28;19935;-71
2022/08/11 14:07:21;;;;;;;;;;;29.90;30.00;;;;;;5079060;28;20658;-71
2022/08/11 14:09:53;;;;;;;;;;;30.00;30.30;;;;;;5081056;28;20010;-70
2022/08/11 14:15:09;;;;;;;;;;;30.10;30.80;;;;;;5075514;28;20020;-69
2022/08/11 14:17:38;;;;;;;;;;;30.20;29.70;;;;;;5081774;28;19928;-70
2022/08/11 14:20:06;;;;;;;;;;;30.20;29.80;;;;;;5082547;28;20477;-70
2022/08/11 14:22:33;;;;;;;;;;;30.30;30.00;;;;;;5080376;28;19924;-69
2022/08/11 14:25:01;;;;;;;;;;;30.40;30.20;;;;;;5078879;28;20386;-71
2022/08/11 14:27:29;;;;;;;;;;;30.40;29.80;;;;;;5078321;28;19924;-73
2022/08/11 14:29:57;;;;;;;;;;;30.50;30.80;;;;;;5083023;28;19931;-70
2022/08/11 14:32:24;;;;;;;;;;;30.60;30.00;;;;;;5086500;28;19924;-70
2022/08/11 14:34:51;;;;;;;;;;;30.60;30.00;;;;;;5081175;28;19932;-70
2022/08/11 14:37:19;;;;;;;;;;;30.60;29.80;;;;;;5083502;28;19924;-73
2022/08/11 14:39:46;;;;;;;;;;;30.70;28.90;;;;;;5080436;28;19928;-70
2022/08/11 14:47:44;;;;;;;;;;;30.90;29.30;;;;;;5083940;28;20065;-70
2022/08/11 14:50:13;;;;;;;;;;;31.00;29.10;;;;;;5083880;28;19928;-70
2022/08/11 14:52:45;;;;;;;;;;;31.00;29.40;;;;;;5080706;28;19964;-72
2022/08/11 14:57:58;;;;;;;;;;;31.10;29.60;;;;;;5080849;28;20544;-70
2022/08/11 15:00:25;;;;;;;;;;;31.20;28.90;;;;;;5081030;28;19924;-72
2022/08/11 15:03:11;;;;;;;;;;;31.20;28.60;;;;;;5086642;28;19924;-71
2022/08/11 15:05:40;;;;;;;;;;;31.30;29.20;;;;;;5081456;28;20018;-72
2022/08/11 15:08:07;;;;;;;;;;;31.30;28.90;;;;;;5087156;28;19935;-73
2022/08/11 15:10:35;;;;;;;;;;;31.40;28.50;;;;;;5084979;28;20709;-70
2022/08/11 15:13:03;;;;;;;;;;;31.40;29.10;;;;;;5083612;28;20333;-70
2022/08/11 15:18:16;;;;;;;;;;;31.50;29.20;;;;;;5091147;28;20440;-69
2022/08/11 15:26:14;;;;;;;;;;;31.60;29.00;;;;;;5082294;28;20024;-69
2022/08/11 15:48:02;;;;;;;;;;;31.80;29.40;;;;;;5082528;28;19935;-72
2022/08/11 15:50:32;;;;;;;;;;;31.80;28.00;;;;;;5084081;28;19928;-70
2022/08/11 15:53:02;;;;;;;;;;;31.80;28.90;;;;;;5085319;28;20180;-70
2022/08/11 15:55:31;;;;;;;;;;;31.70;28.10;;;;;;5087036;28;19927;-73
2022/08/11 16:06:16;;;;;;;;;;;31.70;28.90;;;;;;5084020;28;19931;-70
2022/08/11 16:08:44;;;;;;;;;;;31.70;29.30;;;;;;5088072;28;19943;-72
2022/08/11 16:11:11;;;;;;;;;;;31.70;28.70;;;;;;5081971;28;19932;-70
2022/08/11 16:16:23;;;;;;;;;;;31.60;28.50;;;;;;5084434;28;19954;-73
2022/08/11 16:18:52;;;;;;;;;;;31.60;28.00;;;;;;5082263;28;19940;-69
2022/08/11 16:21:23;;;;;;;;;;;31.60;28.80;;;;;;5088712;28;19939;-71
2022/08/11 16:23:50;;;;;;;;;;;31.60;29.90;;;;;;5079279;28;19932;-69
2022/08/11 16:26:19;;;;;;;;;;;31.60;29.30;;;;;;5083602;28;19932;-70
2022/08/11 16:28:46;;;;;;;;;;;31.60;28.60;;;;;;5083034;28;19924;-70
2022/08/11 16:31:13;;;;;;;;;;;31.50;29.20;;;;;;5081346;28;19931;-70
2022/08/11 16:33:42;;;;;;;;;;;31.50;29.00;;;;;;5087387;28;20578;-70
2022/08/11 16:38:54;;;;;;;;;;;31.50;29.40;;;;;;5077138;28;19989;-73
2022/08/11 16:46:59;;;;;;;;;;;31.50;28.80;;;;;;5088037;28;19927;-70
2022/08/11 16:49:30;;;;;;;;;;;31.50;29.20;;;;;;5083450;28;19932;-70
2022/08/11 16:51:56;;;;;;;;;;;31.40;29.30;;;;;;5088732;28;19932;-70
2022/08/11 16:54:23;;;;;;;;;;;31.40;29.30;;;;;;5077432;28;20300;-70
2022/08/11 16:56:50;;;;;;;;;;;31.40;29.20;;;;;;5086516;28;20690;-68
2022/08/11 16:59:18;;;;;;;;;;;31.30;30.00;;;;;;5087166;28;20415;-71
2022/08/11 17:01:48;;;;;;;;;;;31.30;29.10;;;;;;5082515;28;19920;-70
2022/08/11 17:18:09;;;;;;;;;;;31.30;29.90;;;;;;5084554;28;19970;-71
2022/08/11 17:20:37;;;;;;;;;;;31.30;30.90;;;;;;5081257;28;19928;-69
2022/08/11 17:25:50;;;;;;;;;;;31.30;29.60;;;;;;5078033;28;19935;-69
2022/08/11 17:28:18;;;;;;;;;;;31.30;30.60;;;;;;5079460;28;20277;-70
2022/08/11 17:36:16;;;;;;;;;;;31.30;29.90;;;;;;5080322;28;19934;-70
2022/08/11 17:38:44;;;;;;;;;;;31.30;30.90;;;;;;5081179;28;19947;-70
2022/08/11 17:49:38;;;;;;;;;;;31.30;30.80;;;;;;5072778;28;19932;-70
2022/08/11 18:00:20;;;;;;;;;;;31.20;30.20;;;;;;5080995;28;19979;-69
2022/08/11 18:05:33;;;;;;;;;;;31.20;30.80;;;;;;5083410;28;19926;-70
